Time;durP1;ratioP1;P1;durP2;ratioP2;P2;SDS_P1;SDS_P2;PMS_P1;PMS_P2;Temp;Humidity;BMP_temperature;BMP_pressure;BME280_temperature;BME280_humidity;BME280_pressure;Samples;Min_cycle;Max_cycle;Signal;HPM_P1;HPM_P2
2021/12/30 00:00:32;;;;;;;24.40;6.03;;;9.70;99.90;;;;;;5092852;28;20138;-76
2021/12/30 00:02:58;;;;;;;30.80;6.75;;;9.60;99.90;;;;;;5092462;28;20131;-76
2021/12/30 00:05:24;;;;;;;25.73;6.35;;;9.60;99.90;;;;;;5093014;28;20062;-76
2021/12/30 00:07:51;;;;;;;23.23;5.57;;;9.60;99.90;;;;;;5092143;28;20040;-75
2021/12/30 00:10:17;;;;;;;27.67;5.88;;;9.50;99.90;;;;;;5092812;28;20097;-76
2021/12/30 00:12:43;;;;;;;24.02;5.68;;;9.50;99.90;;;;;;5092799;28;20044;-76
2021/12/30 00:15:10;;;;;;;29.92;6.90;;;9.40;99.90;;;;;;5092336;28;20070;-76
2021/12/30 00:17:36;;;;;;;29.52;6.63;;;9.30;99.90;;;;;;5092769;28;20079;-76
2021/12/30 00:20:04;;;;;;;28.17;6.32;;;9.30;99.90;;;;;;5092324;28;20493;-76
2021/12/30 00:22:31;;;;;;;35.70;6.40;;;9.30;99.90;;;;;;5092666;28;20127;-76
2021/12/30 00:24:56;;;;;;;29.00;6.13;;;9.20;99.90;;;;;;5090430;28;20074;-76
2021/12/30 00:27:22;;;;;;;29.98;6.32;;;9.20;99.90;;;;;;5092589;28;20412;-76
2021/12/30 00:29:48;;;;;;;32.03;6.72;;;9.10;99.90;;;;;;5092781;28;20040;-76
2021/12/30 00:32:13;;;;;;;34.05;7.15;;;9.10;99.90;;;;;;5092154;28;20044;-76
2021/12/30 00:34:39;;;;;;;29.50;6.55;;;9.00;99.90;;;;;;5094668;28;20043;-76
2021/12/30 00:37:05;;;;;;;29.02;6.10;;;9.00;99.90;;;;;;5096076;28;20105;-76
2021/12/30 00:39:31;;;;;;;32.78;6.30;;;9.00;99.90;;;;;;5096428;28;20051;-76
2021/12/30 00:41:57;;;;;;;29.55;6.68;;;8.90;99.90;;;;;;5096264;28;20044;-76
2021/12/30 00:44:22;;;;;;;29.88;7.03;;;8.90;99.90;;;;;;5096030;28;20501;-76
2021/12/30 00:46:48;;;;;;;30.65;6.45;;;8.80;99.90;;;;;;5095995;28;20047;-76
2021/12/30 00:49:14;;;;;;;30.05;6.43;;;8.80;99.90;;;;;;5095868;28;20437;-76
2021/12/30 00:51:41;;;;;;;34.47;7.75;;;8.70;99.90;;;;;;5096341;28;20119;-76
2021/12/30 00:54:07;;;;;;;31.98;6.38;;;8.80;99.90;;;;;;5095756;28;20089;-76
2021/12/30 00:56:32;;;;;;;42.42;8.10;;;8.80;99.90;;;;;;5095935;28;20115;-76
2021/12/30 00:58:58;;;;;;;40.55;7.63;;;8.80;99.90;;;;;;5095668;28;20044;-75
2021/12/30 01:01:24;;;;;;;32.30;7.65;;;8.80;99.90;;;;;;5095744;28;20063;-76
2021/12/30 01:03:51;;;;;;;35.05;7.20;;;8.90;99.90;;;;;;5096095;28;20094;-75
2021/12/30 01:06:17;;;;;;;34.20;6.78;;;8.80;99.90;;;;;;5095056;28;20048;-76
2021/12/30 01:08:43;;;;;;;28.50;6.97;;;8.90;99.90;;;;;;5096004;28;20044;-76
2021/12/30 01:11:10;;;;;;;34.75;8.55;;;8.90;99.90;;;;;;5095515;28;20079;-75
2021/12/30 01:13:40;;;;;;;35.42;7.82;;;8.80;99.90;;;;;;5095844;28;20059;-76
2021/12/30 01:16:16;;;;;;;33.95;7.80;;;8.80;99.90;;;;;;5095086;28;20048;-76
2021/12/30 01:21:30;;;;;;;29.33;7.10;;;8.70;99.90;;;;;;5095956;28;20404;-76
2021/12/30 01:23:57;;;;;;;33.40;6.85;;;8.70;99.90;;;;;;5095643;28;20178;-76
2021/12/30 01:26:23;;;;;;;37.78;7.80;;;8.70;99.90;;;;;;5095101;28;20036;-76
2021/12/30 01:28:50;;;;;;;29.30;7.00;;;8.70;99.90;;;;;;5095557;28;20047;-76
2021/12/30 01:31:17;;;;;;;32.55;7.15;;;8.60;99.90;;;;;;5095013;28;20043;-76
2021/12/30 01:33:44;;;;;;;31.17;7.32;;;8.60;99.90;;;;;;5095564;28;20079;-76
2021/12/30 01:36:11;;;;;;;36.72;8.80;;;8.50;99.90;;;;;;5095107;28;20047;-76
2021/12/30 01:38:37;;;;;;;32.65;7.97;;;8.50;99.90;;;;;;5095091;28;20048;-76
2021/12/30 01:41:04;;;;;;;30.40;7.55;;;8.50;99.90;;;;;;5094956;28;20489;-76
2021/12/30 01:43:32;;;;;;;32.25;7.90;;;8.40;99.90;;;;;;5095295;28;20048;-76
2021/12/30 01:45:58;;;;;;;38.15;9.10;;;8.40;99.90;;;;;;5094257;28;20054;-76
2021/12/30 01:48:24;;;;;;;39.58;8.07;;;8.30;99.90;;;;;;5094282;28;20127;-76
2021/12/30 01:50:50;;;;;;;33.63;7.70;;;8.30;99.90;;;;;;5095266;28;20066;-77
2021/12/30 01:53:16;;;;;;;32.00;7.65;;;8.30;99.90;;;;;;5094695;28;20056;-76
2021/12/30 01:55:42;;;;;;;41.80;7.90;;;8.30;99.90;;;;;;5095006;28;20144;-76
2021/12/30 01:58:09;;;;;;;37.80;8.45;;;8.20;99.90;;;;;;5093257;28;20047;-76
2021/12/30 02:00:38;;;;;;;39.22;8.68;;;8.30;99.90;;;;;;5094887;28;20050;-76
2021/12/30 02:03:05;;;;;;;37.28;8.85;;;8.30;99.90;;;;;;5094432;28;20056;-76
2021/12/30 02:05:32;;;;;;;44.35;10.60;;;8.40;99.90;;;;;;5094805;28;20048;-76
2021/12/30 02:07:58;;;;;;;44.13;10.00;;;8.50;99.90;;;;;;5094471;28;20496;-75
2021/12/30 02:10:25;;;;;;;37.33;9.68;;;8.50;99.90;;;;;;5094263;28;20044;-76
2021/12/30 02:12:51;;;;;;;43.85;10.10;;;8.50;99.90;;;;;;5094723;28;20052;-76
2021/12/30 02:15:18;;;;;;;38.78;10.05;;;8.60;99.90;;;;;;5094260;28;20090;-76
2021/12/30 02:17:47;;;;;;;43.15;10.65;;;8.70;99.90;;;;;;5094540;28;20044;-75
2021/12/30 02:20:59;;;;;;;40.63;10.93;;;8.70;99.90;;;;;;5093784;28;20048;-76
2021/12/30 02:23:34;;;;;;;43.63;11.90;;;8.70;99.90;;;;;;5091784;28;20069;-76
2021/12/30 02:26:19;;;;;;;39.53;12.18;;;8.80;99.90;;;;;;5094254;28;20123;-76
2021/12/30 02:28:46;;;;;;;43.60;12.30;;;8.80;99.90;;;;;;5094463;28;20040;-76
2021/12/30 02:31:18;;;;;;;47.95;14.25;;;8.80;99.90;;;;;;5093909;28;20048;-75
2021/12/30 02:33:46;;;;;;;49.22;13.50;;;8.90;99.90;;;;;;5094353;28;20052;-76
2021/12/30 02:36:14;;;;;;;47.42;14.35;;;8.90;99.90;;;;;;5093794;28;20079;-75
2021/12/30 02:38:44;;;;;;;46.47;14.38;;;8.90;99.90;;;;;;5093956;28;20040;-75
2021/12/30 02:41:14;;;;;;;;;;;9.00;99.90;;;;;;5092985;28;20044;-76
2021/12/30 02:43:41;;;;;;;48.38;15.13;;;9.00;99.90;;;;;;5093735;28;19927;-76
2021/12/30 02:46:06;;;;;;;49.35;16.60;;;9.00;99.90;;;;;;5093957;28;20130;-76
2021/12/30 02:48:34;;;;;;;43.28;15.32;;;9.10;99.90;;;;;;5093455;28;20083;-76
2021/12/30 02:51:06;;;;;;;51.03;15.75;;;9.10;99.90;;;;;;5093633;28;20048;-76
2021/12/30 02:53:33;;;;;;;51.70;16.90;;;9.10;99.90;;;;;;5093557;28;20101;-76
2021/12/30 02:55:59;;;;;;;44.90;15.57;;;9.10;99.90;;;;;;5093831;28;20047;-77
2021/12/30 02:58:25;;;;;;;45.33;15.23;;;9.10;99.90;;;;;;5093415;28;20119;-76
2021/12/30 03:01:16;;;;;;;48.33;16.15;;;9.20;99.90;;;;;;5093163;28;20113;-76
2021/12/30 03:03:43;;;;;;;50.05;16.70;;;9.20;99.90;;;;;;5093876;28;20048;-76
2021/12/30 03:06:11;;;;;;;54.20;16.90;;;9.20;99.90;;;;;;5093578;28;20043;-76
2021/12/30 03:08:37;;;;;;;50.97;17.63;;;9.20;99.90;;;;;;5093655;28;20412;-76
2021/12/30 03:11:04;;;;;;;52.55;18.77;;;9.20;99.90;;;;;;5093455;28;20101;-76
2021/12/30 03:13:32;;;;;;;56.78;19.02;;;9.20;99.90;;;;;;5093086;28;20579;-76
2021/12/30 03:16:07;;;;;;;57.08;19.75;;;9.20;99.90;;;;;;5093463;28;20051;-76
2021/12/30 03:18:35;;;;;;;56.38;20.98;;;9.20;99.90;;;;;;5093149;28;20082;-76
2021/12/30 03:21:03;;;;;;;56.55;19.65;;;9.30;99.90;;;;;;5093133;28;20040;-76
2021/12/30 03:23:29;;;;;;;50.80;19.10;;;9.30;99.90;;;;;;5093031;28;20378;-76
2021/12/30 03:25:55;;;;;;;50.03;19.35;;;9.30;99.90;;;;;;5093257;28;20469;-76
2021/12/30 03:28:20;;;;;;;56.88;19.60;;;9.30;99.90;;;;;;5092851;28;20153;-76
2021/12/30 03:30:46;;;;;;;52.20;19.50;;;9.30;99.90;;;;;;5093740;28;20054;-76
2021/12/30 03:33:12;;;;;;;55.65;20.48;;;9.30;99.90;;;;;;5092834;28;20040;-76
2021/12/30 03:35:39;;;;;;;55.88;20.92;;;9.30;99.90;;;;;;5093460;28;20048;-76
2021/12/30 03:38:05;;;;;;;58.40;21.00;;;9.30;99.90;;;;;;5093199;28;20083;-76
2021/12/30 03:40:32;;;;;;;49.80;21.08;;;9.40;99.90;;;;;;5092775;28;20199;-76
2021/12/30 03:42:58;;;;;;;53.08;20.88;;;9.40;99.90;;;;;;5092734;28;20083;-76
2021/12/30 03:45:25;;;;;;;53.53;20.55;;;9.40;99.90;;;;;;5092641;28;20094;-76
2021/12/30 03:47:52;;;;;;;58.85;21.48;;;9.40;99.90;;;;;;5092962;28;20048;-76
2021/12/30 03:50:24;;;;;;;53.08;19.77;;;9.40;99.90;;;;;;5092584;28;20128;-75
2021/12/30 03:52:54;;;;;;;56.65;20.75;;;9.40;99.90;;;;;;5092816;28;20076;-76
2021/12/30 03:55:21;;;;;;;57.03;20.90;;;9.40;99.90;;;;;;5092556;28;20043;-76
2021/12/30 03:57:49;;;;;;;54.30;20.30;;;9.40;99.90;;;;;;5092641;28;20581;-76
2021/12/30 04:00:16;;;;;;;62.28;22.15;;;9.50;99.90;;;;;;5092928;28;20055;-76
2021/12/30 04:02:42;;;;;;;56.72;22.05;;;9.50;99.90;;;;;;5092223;28;20420;-77
2021/12/30 04:05:09;;;;;;;58.95;23.15;;;9.50;99.90;;;;;;5092578;28;20048;-76
2021/12/30 04:07:35;;;;;;;67.72;22.77;;;9.60;99.90;;;;;;5092399;28;20138;-76
2021/12/30 04:10:02;;;;;;;61.05;22.15;;;9.60;99.90;;;;;;5096412;28;20132;-77
2021/12/30 04:12:28;;;;;;;55.17;21.73;;;9.60;99.90;;;;;;5096271;28;20431;-76
2021/12/30 04:14:53;;;;;;;56.47;22.30;;;9.60;99.90;;;;;;5096633;28;20036;-76
2021/12/30 04:17:19;;;;;;;64.47;22.85;;;9.60;99.90;;;;;;5096552;28;20070;-75
2021/12/30 04:19:45;;;;;;;61.03;22.75;;;9.70;99.90;;;;;;5096915;28;20044;-76
2021/12/30 04:22:14;;;;;;;58.60;22.88;;;9.70;99.90;;;;;;5097097;28;20043;-76
2021/12/30 04:24:39;;;;;;;65.82;22.23;;;9.80;99.90;;;;;;5096007;28;20090;-76
2021/12/30 04:27:05;;;;;;;60.83;21.17;;;9.80;99.90;;;;;;5096565;28;20083;-76
2021/12/30 04:29:31;;;;;;;61.25;21.20;;;9.80;99.90;;;;;;5096281;28;20036;-76
2021/12/30 04:31:57;;;;;;;56.83;20.90;;;9.80;99.90;;;;;;5096604;28;20070;-76
2021/12/30 04:34:23;;;;;;;66.80;21.70;;;9.90;99.90;;;;;;5096195;28;20044;-76
2021/12/30 04:36:49;;;;;;;57.35;20.85;;;9.90;99.90;;;;;;5096263;28;20399;-76
2021/12/30 04:39:14;;;;;;;63.67;21.55;;;9.90;99.90;;;;;;5096525;28;20085;-76
2021/12/30 04:41:40;;;;;;;56.88;21.15;;;10.00;99.90;;;;;;5096069;28;20046;-76
2021/12/30 04:44:06;;;;;;;57.45;20.95;;;10.00;99.90;;;;;;5096416;28;20052;-76
2021/12/30 04:46:33;;;;;;;62.30;21.23;;;10.10;99.90;;;;;;5095979;28;20135;-76
2021/12/30 04:48:59;;;;;;;59.90;20.92;;;10.10;99.90;;;;;;5095930;28;20044;-76
2021/12/30 04:51:24;;;;;;;62.97;20.85;;;10.10;99.90;;;;;;5095906;28;20052;-75
2021/12/30 04:53:50;;;;;;;53.67;19.65;;;10.20;99.90;;;;;;5096324;28;20051;-76
2021/12/30 04:56:16;;;;;;;55.53;21.42;;;10.20;99.90;;;;;;5095027;28;20446;-76
2021/12/30 04:58:41;;;;;;;59.22;21.58;;;10.20;99.90;;;;;;5095787;28;20051;-77
2021/12/30 05:01:07;;;;;;;61.03;21.50;;;10.30;99.90;;;;;;5095805;28;20181;-76
2021/12/30 05:03:33;;;;;;;64.32;22.77;;;10.30;99.90;;;;;;5095305;28;20048;-76
2021/12/30 05:05:58;;;;;;;68.57;23.38;;;10.30;99.90;;;;;;5096192;28;20096;-76
2021/12/30 05:08:26;;;;;;;63.40;22.75;;;10.40;99.90;;;;;;5095779;28;20044;-76
2021/12/30 05:10:52;;;;;;;67.00;22.70;;;10.40;99.90;;;;;;5095931;28;20040;-76
2021/12/30 05:13:19;;;;;;;72.75;23.13;;;10.40;99.90;;;;;;5095909;28;20374;-76
2021/12/30 05:15:47;;;;;;;66.97;21.63;;;10.40;99.90;;;;;;5095029;28;20087;-76
2021/12/30 05:18:15;;;;;;;67.00;22.25;;;10.40;99.90;;;;;;5095830;28;20048;-76
2021/12/30 05:20:41;;;;;;;66.85;21.67;;;10.50;99.90;;;;;;5093867;28;20109;-76
2021/12/30 05:23:08;;;;;;;70.22;23.30;;;10.50;99.90;;;;;;5095313;28;20444;-76
2021/12/30 05:25:34;;;;;;;64.38;22.88;;;10.50;99.90;;;;;;5095059;28;20489;-76
2021/12/30 05:28:00;;;;;;;66.53;22.83;;;10.50;99.90;;;;;;5095284;28;20044;-76
2021/12/30 05:30:26;;;;;;;66.93;23.33;;;10.50;99.90;;;;;;5095547;28;20078;-76
2021/12/30 05:32:56;;;;;;;59.67;22.17;;;10.60;99.90;;;;;;5095385;28;20044;-76
2021/12/30 05:35:23;;;;;;;67.03;22.60;;;10.60;99.90;;;;;;5095978;28;20042;-77
2021/12/30 05:37:49;;;;;;;62.78;21.60;;;10.60;99.90;;;;;;5094940;28;20078;-76
2021/12/30 05:40:19;;;;;;;64.65;22.52;;;10.60;99.90;;;;;;5095064;28;20123;-76
2021/12/30 05:42:45;;;;;;;69.65;22.52;;;10.70;99.90;;;;;;5094950;28;20481;-76
2021/12/30 05:45:14;;;;;;;76.30;23.15;;;10.70;99.90;;;;;;5095540;28;20366;-76
2021/12/30 05:47:41;;;;;;;73.32;23.65;;;10.70;99.90;;;;;;5094656;28;20040;-76
2021/12/30 05:50:08;;;;;;;74.55;22.70;;;10.80;99.90;;;;;;5095210;28;20105;-76
2021/12/30 05:52:35;;;;;;;73.47;21.77;;;10.80;99.90;;;;;;5094546;28;20056;-76
2021/12/30 05:55:01;;;;;;;67.20;22.30;;;10.80;99.90;;;;;;5095065;28;20059;-77
2021/12/30 05:57:26;;;;;;;74.07;23.10;;;10.80;99.90;;;;;;5095031;28;20044;-76
2021/12/30 05:59:52;;;;;;;70.65;22.70;;;10.90;99.90;;;;;;5094532;28;20127;-76
2021/12/30 06:02:18;;;;;;;73.43;22.13;;;10.90;99.90;;;;;;5095069;28;20052;-76
2021/12/30 06:04:44;;;;;;;79.80;24.05;;;11.00;99.90;;;;;;5094099;28;20385;-76
2021/12/30 06:07:10;;;;;;;81.47;23.85;;;10.90;99.90;;;;;;5094937;28;20044;-76
2021/12/30 06:09:36;;;;;;;83.72;24.35;;;11.00;99.90;;;;;;5094343;28;20048;-76
2021/12/30 06:12:03;;;;;;;77.53;24.02;;;11.00;99.90;;;;;;5094704;28;20054;-76
2021/12/30 06:14:29;;;;;;;70.85;23.20;;;11.00;99.90;;;;;;5094648;28;20538;-76
2021/12/30 06:16:54;;;;;;;75.43;24.08;;;11.00;99.90;;;;;;5093915;28;20048;-76
2021/12/30 06:19:20;;;;;;;80.88;23.30;;;11.10;99.90;;;;;;5094256;28;20101;-77
2021/12/30 06:21:46;;;;;;;82.25;23.40;;;11.10;99.90;;;;;;5094377;28;20044;-78
2021/12/30 06:24:12;;;;;;;74.95;22.13;;;11.10;99.90;;;;;;5094515;28;20531;-77
2021/12/30 06:26:38;;;;;;;78.03;22.25;;;11.10;99.90;;;;;;5093943;28;20132;-76
2021/12/30 06:29:04;;;;;;;69.60;22.67;;;11.10;99.90;;;;;;5094225;28;20032;-77
2021/12/30 06:31:29;;;;;;;67.35;22.35;;;11.10;99.90;;;;;;5093939;28;20393;-77
2021/12/30 06:33:55;;;;;;;70.90;22.48;;;11.20;99.90;;;;;;5093952;28;20067;-76
2021/12/30 06:36:21;;;;;;;68.45;21.83;;;11.20;99.90;;;;;;5094257;28;20524;-77
2021/12/30 06:38:48;;;;;;;70.78;21.92;;;11.20;99.90;;;;;;5093746;28;20044;-76
2021/12/30 06:41:14;;;;;;;70.03;22.35;;;11.20;99.90;;;;;;5093953;28;20132;-76
2021/12/30 06:43:40;;;;;;;69.80;22.15;;;11.20;99.90;;;;;;5093700;28;20066;-76
2021/12/30 06:46:05;;;;;;;73.85;23.00;;;11.20;99.90;;;;;;5093978;28;20465;-77
2021/12/30 06:48:32;;;;;;;68.82;22.20;;;11.30;99.90;;;;;;5094080;28;20430;-77
2021/12/30 06:51:00;;;;;;;75.65;23.83;;;11.30;99.90;;;;;;5093580;28;20083;-76
2021/12/30 06:53:26;;;;;;;72.25;22.63;;;11.30;99.90;;;;;;5093580;28;20051;-76
2021/12/30 06:55:52;;;;;;;69.32;22.70;;;11.30;99.90;;;;;;5093476;28;20130;-77
2021/12/30 06:58:19;;;;;;;62.35;22.10;;;11.30;99.90;;;;;;5094157;28;20454;-77
2021/12/30 07:00:46;;;;;;;69.03;21.85;;;11.30;99.90;;;;;;5093346;28;20051;-77
2021/12/30 07:03:12;;;;;;;67.00;21.48;;;11.30;99.90;;;;;;5093960;28;20477;-77
2021/12/30 07:05:38;;;;;;;67.47;21.75;;;11.30;99.90;;;;;;5093628;28;20088;-77
2021/12/30 07:08:04;;;;;;;60.15;20.10;;;11.40;99.90;;;;;;5093252;28;20105;-77
2021/12/30 07:10:30;;;;;;;58.00;20.02;;;11.40;99.90;;;;;;5093646;28;20058;-76
2021/12/30 07:12:55;;;;;;;60.55;20.23;;;11.40;99.90;;;;;;5093164;28;20040;-76
2021/12/30 07:15:21;;;;;;;67.55;21.25;;;11.40;99.90;;;;;;5093537;28;20048;-77
2021/12/30 07:17:48;;;;;;;62.63;20.35;;;11.40;99.90;;;;;;5093070;28;20040;-76
2021/12/30 07:20:14;;;;;;;58.55;19.77;;;11.40;99.90;;;;;;5092123;28;20059;-76
2021/12/30 07:22:40;;;;;;;54.85;18.67;;;11.40;99.90;;;;;;5093445;28;20051;-77
2021/12/30 07:25:07;;;;;;;49.47;17.17;;;11.40;99.90;;;;;;5093458;28;20483;-76
2021/12/30 07:27:32;;;;;;;56.88;16.67;;;11.40;99.90;;;;;;5093275;28;20503;-76
2021/12/30 07:29:59;;;;;;;53.45;16.27;;;11.40;99.90;;;;;;5092636;28;20119;-76
2021/12/30 07:32:28;;;;;;;52.80;15.10;;;11.50;99.90;;;;;;5093464;28;20405;-76
2021/12/30 07:34:54;;;;;;;49.35;15.05;;;11.40;99.90;;;;;;5092853;28;20389;-76
2021/12/30 07:37:20;;;;;;;38.85;12.85;;;11.50;99.90;;;;;;5093185;28;20039;-76
2021/12/30 07:39:47;;;;;;;35.03;12.05;;;11.50;99.90;;;;;;5092505;28;20437;-76
2021/12/30 07:42:13;;;;;;;34.15;11.38;;;11.50;99.90;;;;;;5093342;28;20086;-76
2021/12/30 07:44:39;;;;;;;29.00;10.57;;;11.50;99.90;;;;;;5092070;28;20560;-76
2021/12/30 07:47:06;;;;;;;30.70;10.48;;;11.50;99.90;;;;;;5092631;28;20132;-76
2021/12/30 07:49:36;;;;;;;23.67;9.23;;;11.60;99.90;;;;;;5093025;28;20126;-77
2021/12/30 07:52:03;;;;;;;25.63;9.07;;;11.60;99.90;;;;;;5092246;28;20044;-77
2021/12/30 07:54:28;;;;;;;17.73;7.43;;;11.60;99.90;;;;;;5093029;28;20056;-77
2021/12/30 07:56:54;;;;;;;18.75;7.95;;;11.60;99.90;;;;;;5092496;28;20096;-77
2021/12/30 07:59:20;;;;;;;18.10;7.53;;;11.60;99.90;;;;;;5093005;28;20055;-77
2021/12/30 08:01:46;;;;;;;16.83;6.90;;;11.60;99.90;;;;;;5092207;28;20153;-72
2021/12/30 08:04:11;;;;;;;15.70;7.00;;;11.60;99.90;;;;;;5093115;28;20537;-77
2021/12/30 08:06:37;;;;;;;14.23;6.70;;;11.60;99.90;;;;;;5092840;28;20040;-77
2021/12/30 08:09:03;;;;;;;13.55;6.53;;;11.60;99.90;;;;;;5092108;28;20135;-77
2021/12/30 08:11:29;;;;;;;15.27;6.65;;;11.60;99.90;;;;;;5091257;28;20040;-77
2021/12/30 08:13:54;;;;;;;11.13;6.18;;;11.60;99.90;;;;;;5092376;28;20040;-76
2021/12/30 08:16:20;;;;;;;13.55;6.57;;;11.60;99.90;;;;;;5091573;28;20067;-77
2021/12/30 08:18:46;;;;;;;14.43;6.97;;;11.60;99.90;;;;;;5092694;28;20148;-75
2021/12/30 08:21:11;;;;;;;12.90;6.47;;;11.70;99.90;;;;;;5092270;28;20130;-76
2021/12/30 08:23:37;;;;;;;11.68;5.95;;;11.70;99.90;;;;;;5092063;28;20100;-76
2021/12/30 08:26:04;;;;;;;12.20;6.00;;;11.70;99.90;;;;;;5092242;28;20488;-77
2021/12/30 08:28:30;;;;;;;12.68;6.70;;;11.70;99.90;;;;;;5092675;28;20040;-75
2021/12/30 08:30:56;;;;;;;15.35;6.88;;;11.70;99.90;;;;;;5092047;28;20110;-76
2021/12/30 08:33:22;;;;;;;13.27;6.72;;;11.80;99.90;;;;;;5092344;28;20044;-76
2021/12/30 08:35:48;;;;;;;14.30;7.30;;;11.80;99.90;;;;;;5092711;28;20094;-76
2021/12/30 08:38:16;;;;;;;14.85;7.65;;;11.80;99.90;;;;;;5092672;28;20052;-76
2021/12/30 08:40:42;;;;;;;15.52;7.50;;;11.80;99.90;;;;;;5092733;28;20055;-76
2021/12/30 08:43:10;;;;;;;15.57;7.63;;;11.80;99.90;;;;;;5092071;28;20435;-77
2021/12/30 08:45:36;;;;;;;14.02;7.40;;;11.80;99.90;;;;;;5092657;28;20052;-76
2021/12/30 08:48:03;;;;;;;17.33;8.48;;;11.80;99.90;;;;;;5091917;28;20044;-77
2021/12/30 08:50:28;;;;;;;20.20;8.75;;;11.80;99.90;;;;;;5092176;28;20048;-76
2021/12/30 08:52:54;;;;;;;20.67;9.00;;;11.80;99.90;;;;;;5092042;28;20105;-75
2021/12/30 08:55:20;;;;;;;19.80;9.60;;;11.80;99.90;;;;;;5094561;28;20077;-77
2021/12/30 08:57:48;;;;;;;22.83;9.95;;;11.90;99.90;;;;;;5096301;28;20120;-77
2021/12/30 09:00:23;;;;;;;26.65;11.13;;;11.90;99.90;;;;;;5095011;28;20044;-77
2021/12/30 09:02:50;;;;;;;26.70;11.73;;;11.90;99.90;;;;;;5096364;28;20052;-77
2021/12/30 09:05:16;;;;;;;28.13;12.27;;;12.00;99.90;;;;;;5095072;28;20040;-76
2021/12/30 09:07:42;;;;;;;29.05;13.55;;;12.00;99.90;;;;;;5095988;28;20052;-77
2021/12/30 09:10:10;;;;;;;26.30;13.48;;;12.00;99.90;;;;;;5095520;28;20077;-77
2021/12/30 09:12:37;;;;;;;27.48;13.70;;;12.10;99.90;;;;;;5095945;28;20054;-77
2021/12/30 09:15:05;;;;;;;28.98;13.70;;;12.10;99.90;;;;;;5095149;28;20084;-77
2021/12/30 09:17:31;;;;;;;26.90;13.57;;;12.10;99.90;;;;;;5095789;28;20044;-77
2021/12/30 09:19:57;;;;;;;24.27;13.05;;;12.10;99.90;;;;;;5095399;28;20396;-76
2021/12/30 09:22:23;;;;;;;22.88;11.80;;;12.20;99.90;;;;;;5095735;28;20507;-77
2021/12/30 09:24:49;;;;;;;22.42;11.45;;;12.20;99.90;;;;;;5094424;28;20439;-76
2021/12/30 09:27:15;;;;;;;20.50;11.32;;;12.20;99.90;;;;;;5094538;28;20040;-77
2021/12/30 09:29:41;;;;;;;22.25;12.25;;;12.20;99.90;;;;;;5095593;28;20044;-77
2021/12/30 09:32:07;;;;;;;20.73;10.80;;;12.30;99.90;;;;;;5095065;28;20044;-77
2021/12/30 09:34:33;;;;;;;17.73;11.25;;;12.30;99.90;;;;;;5095770;28;20094;-77
2021/12/30 09:36:59;;;;;;;17.83;10.73;;;12.30;99.90;;;;;;5094765;28;20040;-76
2021/12/30 09:39:25;;;;;;;18.80;10.05;;;12.30;99.90;;;;;;5095446;28;20040;-77
2021/12/30 09:41:51;;;;;;;19.90;10.93;;;12.30;99.90;;;;;;5095338;28;20122;-77
2021/12/30 09:44:18;;;;;;;18.13;10.75;;;12.30;99.90;;;;;;5094849;28;20105;-77
2021/12/30 09:46:45;;;;;;;18.02;11.40;;;12.30;99.90;;;;;;5095154;28;20130;-77
2021/12/30 09:49:14;;;;;;;16.75;10.65;;;12.40;99.90;;;;;;5095149;28;20094;-77
2021/12/30 09:51:42;;;;;;;17.85;11.57;;;12.40;99.90;;;;;;5094799;28;20051;-77
2021/12/30 09:54:08;;;;;;;16.70;11.20;;;12.40;99.90;;;;;;5074423;28;20048;-77
2021/12/30 09:56:34;;;;;;;20.42;10.80;;;12.40;99.90;;;;;;5074891;28;20040;-77
2021/12/30 09:59:00;;;;;;;15.73;10.57;;;12.40;99.90;;;;;;5074333;28;20093;-71
2021/12/30 10:01:26;;;;;;;17.95;10.60;;;12.40;99.90;;;;;;5074426;28;20078;-77
2021/12/30 10:03:56;;;;;;;17.52;10.52;;;12.50;99.90;;;;;;5090689;28;20056;-77
2021/12/30 10:06:22;;;;;;;18.13;10.75;;;12.40;99.90;;;;;;5093634;28;20051;-76
2021/12/30 10:08:57;;;;;;;19.52;10.38;;;12.50;99.90;;;;;;5094833;28;20041;-77
2021/12/30 10:11:24;;;;;;;16.98;9.50;;;12.50;99.90;;;;;;5094373;28;20096;-77
2021/12/30 10:13:56;;;;;;;14.85;9.48;;;12.50;99.90;;;;;;5094490;28;20059;-76
2021/12/30 10:16:24;;;;;;;17.95;9.63;;;12.60;99.90;;;;;;5094333;28;20075;-76
2021/12/30 10:19:00;;;;;;;15.68;9.20;;;12.60;99.90;;;;;;5094662;28;20044;-76
2021/12/30 10:21:32;;;;;;;15.13;8.05;;;12.60;99.90;;;;;;5094310;28;20511;-76
2021/12/30 10:24:01;;;;;;;13.88;7.97;;;12.60;99.90;;;;;;5094213;28;20086;-76
2021/12/30 10:26:27;;;;;;;13.07;8.48;;;12.60;99.90;;;;;;5073766;28;20075;-76
2021/12/30 10:28:58;;;;;;;12.60;7.32;;;12.60;99.90;;;;;;5074201;28;20380;-76
2021/12/30 10:31:27;;;;;;;9.95;6.78;;;12.60;99.90;;;;;;5073789;28;20052;-76
2021/12/30 10:34:06;;;;;;;11.00;6.13;;;12.70;99.90;;;;;;5074051;28;20048;-76
2021/12/30 10:36:43;;;;;;;11.90;6.38;;;12.70;99.90;;;;;;5074374;28;20040;-76
2021/12/30 10:39:14;;;;;;;14.27;7.22;;;12.70;99.90;;;;;;5080900;28;20043;-75
2021/12/30 10:41:40;;;;;;;14.10;7.30;;;12.70;99.90;;;;;;5094229;28;20044;-76
2021/12/30 10:44:06;;;;;;;15.60;6.93;;;12.70;99.90;;;;;;5093739;28;20044;-74
2021/12/30 10:46:32;;;;;;;14.07;6.60;;;12.70;99.90;;;;;;5094043;28;20114;-76
2021/12/30 10:49:25;;;;;;;15.07;7.65;;;12.70;99.90;;;;;;5093732;28;20396;-76
2021/12/30 10:51:53;;;;;;;14.10;6.53;;;12.80;99.90;;;;;;5094012;28;20048;-75
2021/12/30 10:54:25;;;;;;;12.50;6.38;;;12.80;99.90;;;;;;5093161;28;20115;-76
2021/12/30 10:57:04;;;;;;;11.88;6.10;;;12.80;99.90;;;;;;5093983;28;20389;-76
2021/12/30 10:59:41;;;;;;;12.05;5.85;;;12.80;99.90;;;;;;5093191;28;20047;-76
2021/12/30 11:02:13;;;;;;;13.48;6.15;;;12.80;99.90;;;;;;5093616;28;20186;-76
2021/12/30 11:04:54;;;;;;;17.23;6.68;;;12.80;99.90;;;;;;5093797;28;20450;-77
2021/12/30 11:07:25;;;;;;;13.25;6.25;;;12.90;99.90;;;;;;5093268;28;20051;-76
2021/12/30 11:09:58;;;;;;;14.93;6.10;;;12.90;99.90;;;;;;5093544;28;20044;-76
2021/12/30 11:12:28;;;;;;;16.88;6.68;;;12.80;99.90;;;;;;5090541;28;20125;-76
2021/12/30 11:14:55;;;;;;;15.95;6.18;;;12.90;99.90;;;;;;5093326;28;20040;-76
2021/12/30 11:17:29;;;;;;;17.13;7.95;;;12.90;99.90;;;;;;5093399;28;20044;-75
2021/12/30 11:19:58;;;;;;;16.33;7.22;;;12.90;99.90;;;;;;5093654;28;20058;-76
2021/12/30 11:22:27;;;;;;;18.08;6.68;;;12.90;99.90;;;;;;5093000;28;20144;-76
2021/12/30 11:24:56;;;;;;;16.42;5.82;;;12.90;99.90;;;;;;5093022;28;20501;-76
2021/12/30 11:27:24;;;;;;;16.92;6.45;;;12.90;99.90;;;;;;5092954;28;20040;-75
2021/12/30 11:29:53;;;;;;;18.95;6.88;;;12.90;99.90;;;;;;5093360;28;20043;-76
2021/12/30 11:32:23;;;;;;;17.55;6.45;;;12.90;99.90;;;;;;5092909;28;20109;-76
2021/12/30 11:34:50;;;;;;;16.75;6.30;;;12.90;99.90;;;;;;5093438;28;20054;-76
2021/12/30 11:37:17;;;;;;;17.02;6.88;;;13.00;99.90;;;;;;5092784;28;20043;-76
2021/12/30 11:39:49;;;;;;;18.48;6.43;;;13.00;99.90;;;;;;5092858;28;20065;-76
2021/12/30 11:42:21;;;;;;;17.80;6.30;;;13.00;99.90;;;;;;5092753;28;20087;-75
2021/12/30 11:44:51;;;;;;;18.40;6.70;;;13.00;99.90;;;;;;5093089;28;20052;-76
2021/12/30 11:47:33;;;;;;;19.80;7.13;;;13.10;99.90;;;;;;5092981;28;20052;-76
2021/12/30 11:50:03;;;;;;;16.25;5.97;;;13.10;99.90;;;;;;5093102;28;20052;-76
2021/12/30 11:52:54;;;;;;;16.35;6.22;;;13.10;99.90;;;;;;5092607;28;20161;-76
2021/12/30 11:55:40;;;;;;;15.32;6.05;;;13.10;99.90;;;;;;5092320;28;20476;-75
2021/12/30 11:58:27;;;;;;;15.00;5.85;;;13.10;99.90;;;;;;5092633;28;20516;-75
2021/12/30 12:00:54;;;;;;;14.73;5.90;;;13.10;99.90;;;;;;5092822;28;20044;-75
2021/12/30 12:03:37;;;;;;;17.58;5.47;;;13.10;99.90;;;;;;5092613;28;20417;-75
2021/12/30 12:06:05;;;;;;;14.82;5.65;;;13.10;99.90;;;;;;5092517;28;20073;-76
2021/12/30 12:08:45;;;;;;;18.65;5.68;;;13.10;99.90;;;;;;5092472;28;20058;-76
2021/12/30 12:11:17;;;;;;;16.38;5.07;;;13.00;99.90;;;;;;5092884;28;20044;-75
2021/12/30 12:13:47;;;;;;;19.13;5.82;;;13.00;99.90;;;;;;5092829;28;20048;-75
2021/12/30 12:16:15;;;;;;;14.45;5.45;;;13.00;99.90;;;;;;5092458;28;20097;-75
2021/12/30 12:19:07;;;;;;;16.98;5.53;;;13.00;99.90;;;;;;5092362;28;20059;-75
2021/12/30 12:21:49;;;;;;;15.07;6.38;;;13.00;99.90;;;;;;5092327;28;20128;-76
2021/12/30 12:24:20;;;;;;;16.90;5.75;;;12.90;99.90;;;;;;5092736;28;20044;-75
2021/12/30 12:26:52;;;;;;;15.25;5.60;;;13.00;99.90;;;;;;5092312;28;20044;-75
2021/12/30 12:29:32;;;;;;;17.35;5.70;;;12.90;99.90;;;;;;5093262;28;20101;-75
2021/12/30 12:32:14;;;;;;;15.85;5.38;;;12.90;99.90;;;;;;5096683;28;20059;-75
2021/12/30 12:34:53;;;;;;;18.00;5.85;;;12.90;99.90;;;;;;5096302;28;20132;-75
2021/12/30 12:37:39;;;;;;;17.45;6.15;;;12.90;99.90;;;;;;5095391;28;20109;-76
2021/12/30 12:40:07;;;;;;;16.92;5.35;;;12.90;99.90;;;;;;5096682;28;20170;-76
2021/12/30 12:42:51;;;;;;;17.52;6.00;;;13.00;99.90;;;;;;5094905;28;20127;-76